Time;durP1;ratioP1;P1;durP2;ratioP2;P2;SDS_P1;SDS_P2;PMS_P1;PMS_P2;Temp;Humidity;BMP_temperature;BMP_pressure;BME280_temperature;BME280_humidity;BME280_pressure;Samples;Min_cycle;Max_cycle;Signal;HPM_P1;HPM_P2
2022/11/26 00:00:38;;;;;;;23.98;5.93;;;9.90;99.90;;;;;;5034420;28;20026;-73
2022/11/26 00:03:04;;;;;;;21.70;6.50;;;9.90;99.90;;;;;;5034728;28;20030;-73
2022/11/26 00:05:31;;;;;;;21.10;5.30;;;9.80;99.90;;;;;;5034664;28;20037;-72
2022/11/26 00:07:59;;;;;;;15.75;5.05;;;9.80;99.90;;;;;;5034836;28;20029;-72
2022/11/26 00:10:28;;;;;;;21.23;6.38;;;9.70;99.90;;;;;;5034452;28;20120;-72
2022/11/26 00:12:55;;;;;;;20.00;6.65;;;9.60;99.90;;;;;;5034129;28;20031;-72
2022/11/26 00:15:22;;;;;;;26.75;5.45;;;9.60;99.90;;;;;;5034277;28;20036;-72
2022/11/26 00:17:49;;;;;;;16.27;5.13;;;9.50;99.90;;;;;;5034673;28;20067;-72
2022/11/26 00:20:16;;;;;;;17.20;6.03;;;9.50;99.90;;;;;;5016567;28;20029;-73
2022/11/26 00:22:53;;;;;;;25.15;5.68;;;9.50;99.90;;;;;;5016864;28;20036;-73
2022/11/26 00:25:21;;;;;;;113.53;6.90;;;9.50;99.90;;;;;;5035128;28;20040;-73
2022/11/26 00:27:48;;;;;;;165.32;8.15;;;9.50;99.90;;;;;;5034164;28;20026;-74
2022/11/26 00:30:25;;;;;;;146.07;6.80;;;9.50;99.90;;;;;;5033956;28;20031;-73
2022/11/26 00:32:52;;;;;;;113.97;6.32;;;9.50;99.90;;;;;;5016661;28;20071;-74
2022/11/26 00:35:19;;;;;;;8.60;4.30;;;9.40;99.90;;;;;;5033884;28;20104;-73
2022/11/26 00:37:51;;;;;;;51.00;5.85;;;9.30;99.90;;;;;;5016572;28;20520;-73
2022/11/26 00:40:26;;;;;;;11.00;4.72;;;9.40;99.90;;;;;;5016237;28;20076;-73
2022/11/26 00:42:53;;;;;;;12.93;4.60;;;9.30;99.90;;;;;;5033919;28;20032;-73
2022/11/26 00:45:22;;;;;;;8.68;4.20;;;9.30;99.90;;;;;;5033260;28;20076;-73
2022/11/26 00:47:48;;;;;;;113.25;5.07;;;9.40;99.90;;;;;;5033594;28;20052;-73
2022/11/26 00:50:16;;;;;;;9.68;4.20;;;9.40;99.90;;;;;;5016593;28;20381;-74
2022/11/26 00:52:42;;;;;;;9.85;4.35;;;9.40;99.90;;;;;;5034010;28;20029;-74
2022/11/26 00:55:30;;;;;;;30.63;4.97;;;9.40;99.90;;;;;;5016159;28;20025;-73
2022/11/26 00:57:56;;;;;;;19.33;4.70;;;9.40;99.90;;;;;;5023554;28;20064;-73
2022/11/26 01:00:24;;;;;;;14.77;4.30;;;9.40;99.90;;;;;;5034046;28;20033;-73
2022/11/26 01:02:51;;;;;;;14.00;3.92;;;9.40;99.90;;;;;;5033708;28;20080;-73
2022/11/26 01:05:17;;;;;;;9.10;4.25;;;9.40;99.90;;;;;;5033396;28;20068;-73
2022/11/26 01:07:44;;;;;;;14.90;3.88;;;9.40;99.90;;;;;;5033352;28;20026;-73
2022/11/26 01:10:23;;;;;;;10.38;4.53;;;9.50;99.90;;;;;;5033900;28;20072;-73
2022/11/26 01:12:50;;;;;;;50.55;5.30;;;9.50;99.90;;;;;;5033909;28;20021;-73
2022/11/26 01:15:17;;;;;;;9.85;4.68;;;9.50;99.90;;;;;;5033536;28;20065;-73
2022/11/26 01:17:43;;;;;;;20.00;4.03;;;9.50;99.90;;;;;;5015853;28;20462;-73
2022/11/26 01:20:27;;;;;;;53.50;4.95;;;9.50;99.90;;;;;;5033551;28;20032;-73
2022/11/26 01:22:56;;;;;;;5.70;3.92;;;9.40;99.90;;;;;;5033560;28;20116;-73
2022/11/26 01:25:23;;;;;;;8.27;4.13;;;9.50;99.90;;;;;;5033675;28;20022;-73
2022/11/26 01:27:49;;;;;;;13.35;4.47;;;9.50;99.90;;;;;;5033409;28;20033;-73
2022/11/26 01:30:28;;;;;;;6.43;4.10;;;9.50;99.90;;;;;;5033356;28;20466;-73
2022/11/26 01:32:54;;;;;;;6.55;3.35;;;9.50;99.90;;;;;;5033425;28;20036;-73
2022/11/26 01:35:21;;;;;;;6.72;3.78;;;9.50;99.90;;;;;;5033084;28;20025;-73
2022/11/26 01:37:47;;;;;;;7.45;3.90;;;9.50;99.90;;;;;;5033693;28;20107;-73
2022/11/26 01:40:48;;;;;;;7.13;3.80;;;9.50;99.90;;;;;;5033359;28;20034;-73
2022/11/26 01:43:22;;;;;;;7.43;3.60;;;9.50;99.90;;;;;;5031084;28;20046;-73
2022/11/26 01:45:47;;;;;;;9.93;3.58;;;9.50;99.90;;;;;;5015538;28;20112;-73
2022/11/26 01:48:32;;;;;;;6.60;4.32;;;9.50;99.90;;;;;;5033566;28;20060;-73
2022/11/26 01:51:01;;;;;;;6.82;3.70;;;9.50;99.90;;;;;;5033885;28;20034;-73
2022/11/26 01:53:39;;;;;;;9.07;4.75;;;9.50;99.90;;;;;;5033228;28;20017;-72
2022/11/26 01:56:15;;;;;;;8.55;4.40;;;9.60;99.90;;;;;;5033227;28;20032;-72
2022/11/26 01:58:44;;;;;;;9.88;4.20;;;9.60;99.90;;;;;;5017546;28;20025;-72
2022/11/26 02:01:10;;;;;;;6.38;3.65;;;9.60;99.90;;;;;;5036951;28;20075;-72
2022/11/26 02:04:05;;;;;;;9.00;4.38;;;9.60;99.90;;;;;;5036875;28;20442;-72
2022/11/26 02:06:33;;;;;;;9.82;4.47;;;9.60;99.90;;;;;;5008438;28;20393;-72
2022/11/26 02:09:00;;;;;;;9.30;4.63;;;9.60;99.90;;;;;;5036735;28;20462;-72
2022/11/26 02:11:26;;;;;;;9.07;4.05;;;9.60;99.80;;;;;;5018992;28;20031;-72
2022/11/26 02:13:58;;;;;;;10.70;4.75;;;9.60;99.70;;;;;;5036954;28;20026;-73
2022/11/26 02:16:44;;;;;;;7.28;4.28;;;9.60;99.70;;;;;;5036662;28;20044;-72
2022/11/26 02:19:34;;;;;;;12.35;4.88;;;9.60;99.60;;;;;;5036374;28;20044;-72
2022/11/26 02:22:09;;;;;;;6.97;4.43;;;9.50;99.50;;;;;;5036606;28;20029;-72
2022/11/26 02:24:49;;;;;;;10.25;4.13;;;9.50;99.50;;;;;;5036538;28;20030;-72
2022/11/26 02:27:49;;;;;;;11.57;5.32;;;9.60;99.50;;;;;;5036387;28;20047;-72
2022/11/26 02:30:16;;;;;;;12.68;5.05;;;9.50;99.40;;;;;;5036789;28;20052;-72
2022/11/26 02:32:51;;;;;;;15.25;5.07;;;9.60;99.50;;;;;;5036660;28;20044;-72
2022/11/26 02:35:22;;;;;;;15.13;5.00;;;9.60;99.50;;;;;;5036450;28;20036;-72
2022/11/26 02:38:05;;;;;;;13.05;5.55;;;9.60;99.50;;;;;;5018823;28;20037;-72
2022/11/26 02:40:30;;;;;;;15.52;5.00;;;9.60;99.50;;;;;;5036031;28;20569;-72
2022/11/26 02:42:56;;;;;;;17.60;5.72;;;9.50;99.40;;;;;;5036277;28;20116;-72
2022/11/26 02:45:26;;;;;;;14.00;5.03;;;9.60;99.50;;;;;;5034904;28;20454;-72
2022/11/26 02:47:55;;;;;;;19.25;5.97;;;9.60;99.50;;;;;;5018296;28;20358;-72
2022/11/26 02:50:46;;;;;;;22.23;6.35;;;9.50;99.30;;;;;;5036262;28;20025;-72
2022/11/26 02:53:13;;;;;;;17.02;5.68;;;9.50;99.30;;;;;;5036040;28;20034;-72
2022/11/26 02:55:45;;;;;;;16.30;5.65;;;9.50;99.40;;;;;;5035940;28;20033;-72
2022/11/26 02:58:11;;;;;;;13.27;5.88;;;9.40;99.40;;;;;;5018338;28;20029;-72
2022/11/26 03:00:40;;;;;;;15.48;6.15;;;9.40;99.40;;;;;;5034906;28;20040;-73
2022/11/26 03:03:21;;;;;;;13.68;5.18;;;9.30;99.40;;;;;;5035819;28;20029;-72
2022/11/26 03:05:48;;;;;;;17.20;6.22;;;9.30;99.50;;;;;;5018422;28;20029;-72
2022/11/26 03:08:14;;;;;;;20.42;5.90;;;9.20;99.50;;;;;;5017737;28;20026;-72
2022/11/26 03:10:39;;;;;;;16.17;6.43;;;9.10;99.50;;;;;;5017764;28;20042;-73
2022/11/26 03:13:05;;;;;;;20.58;6.43;;;9.10;99.60;;;;;;5036228;28;20039;-72
2022/11/26 03:15:31;;;;;;;12.63;6.45;;;9.10;99.70;;;;;;5036180;28;20049;-72
2022/11/26 03:17:56;;;;;;;15.65;6.72;;;9.00;99.90;;;;;;5035478;28;20037;-72
2022/11/26 03:20:22;;;;;;;19.38;6.32;;;8.90;99.90;;;;;;5035473;28;20038;-72
2022/11/26 03:22:48;;;;;;;18.63;6.47;;;8.80;99.90;;;;;;5035474;28;20030;-72
2022/11/26 03:25:13;;;;;;;20.30;7.03;;;8.70;99.90;;;;;;5034231;28;20382;-72
2022/11/26 03:27:39;;;;;;;12.98;6.40;;;8.70;99.90;;;;;;5035609;28;20481;-72
2022/11/26 03:30:05;;;;;;;16.63;6.68;;;8.70;99.90;;;;;;5035253;28;20099;-72
2022/11/26 03:32:31;;;;;;;21.67;7.20;;;8.70;99.90;;;;;;5035591;28;20129;-72
2022/11/26 03:34:57;;;;;;;20.90;7.28;;;8.70;99.90;;;;;;5033960;28;20453;-73
2022/11/26 03:37:22;;;;;;;17.42;7.05;;;8.70;99.90;;;;;;5030293;28;20145;-73
2022/11/26 03:39:48;;;;;;;16.38;7.30;;;8.70;99.90;;;;;;5014276;28;20038;-72
2022/11/26 03:42:14;;;;;;;19.58;7.53;;;8.70;99.90;;;;;;5015270;28;20061;-72
2022/11/26 03:44:39;;;;;;;21.58;7.43;;;8.70;99.90;;;;;;5014102;28;20455;-72
2022/11/26 03:47:05;;;;;;;18.23;6.65;;;8.60;99.90;;;;;;5015193;28;20035;-72
2022/11/26 03:49:30;;;;;;;16.13;6.68;;;8.60;99.90;;;;;;5015115;28;20060;-72
2022/11/26 03:51:56;;;;;;;17.17;6.82;;;8.60;99.90;;;;;;5015163;28;20026;-73
2022/11/26 03:54:22;;;;;;;23.63;7.05;;;8.60;99.90;;;;;;5013671;28;20065;-72
2022/11/26 03:56:47;;;;;;;12.82;6.10;;;8.60;99.90;;;;;;5013942;28;20033;-73
2022/11/26 03:59:13;;;;;;;15.90;6.75;;;8.60;99.90;;;;;;5014995;28;20088;-73
2022/11/26 04:01:38;;;;;;;15.88;6.38;;;8.70;99.90;;;;;;5013619;28;20065;-73
2022/11/26 04:04:04;;;;;;;16.98;6.88;;;8.60;99.90;;;;;;5014942;28;20109;-72
2022/11/26 04:06:30;;;;;;;12.52;5.63;;;8.70;99.90;;;;;;5014866;28;20122;-72
2022/11/26 04:08:56;;;;;;;16.25;6.25;;;8.70;99.90;;;;;;5013500;28;20045;-72
2022/11/26 04:11:21;;;;;;;21.45;7.95;;;8.70;99.90;;;;;;5013526;28;20065;-72
2022/11/26 04:13:47;;;;;;;16.05;6.38;;;8.80;99.90;;;;;;5015243;28;20030;-72
2022/11/26 04:16:12;;;;;;;20.15;6.95;;;8.70;99.90;;;;;;5014697;28;20048;-72
2022/11/26 04:18:38;;;;;;;17.67;6.50;;;8.70;99.90;;;;;;5014645;28;20045;-72
2022/11/26 04:21:07;;;;;;;17.95;6.75;;;8.70;99.90;;;;;;5013977;28;20034;-72
2022/11/26 04:23:33;;;;;;;21.05;6.18;;;8.80;99.90;;;;;;5014554;28;20360;-73
2022/11/26 04:25:59;;;;;;;12.93;6.38;;;8.70;99.90;;;;;;5014225;28;20033;-72
2022/11/26 04:28:24;;;;;;;18.92;7.25;;;8.80;99.90;;;;;;4997340;28;20352;-72
2022/11/26 04:30:50;;;;;;;15.75;6.45;;;8.80;99.90;;;;;;5014945;28;20036;-71
2022/11/26 04:33:16;;;;;;;17.33;6.13;;;8.80;99.90;;;;;;5014132;28;20498;-71
2022/11/26 04:35:42;;;;;;;13.55;6.18;;;8.80;99.90;;;;;;5014709;28;20129;-71
2022/11/26 04:38:07;;;;;;;12.60;5.97;;;8.80;99.90;;;;;;5034458;28;20112;-71
2022/11/26 04:40:33;;;;;;;14.07;5.90;;;8.80;99.90;;;;;;5034086;28;20025;-71
2022/11/26 04:42:59;;;;;;;12.18;6.10;;;8.90;99.90;;;;;;5032694;28;20034;-71
2022/11/26 04:45:24;;;;;;;12.32;5.82;;;8.90;99.90;;;;;;5032503;28;20038;-71
2022/11/26 04:47:50;;;;;;;13.27;6.13;;;8.90;99.90;;;;;;5033946;28;20021;-71
2022/11/26 04:50:16;;;;;;;15.75;6.07;;;8.90;99.90;;;;;;5032711;28;20477;-71
2022/11/26 04:52:41;;;;;;;15.63;6.15;;;8.90;99.90;;;;;;5033911;28;20029;-71
2022/11/26 04:55:07;;;;;;;14.40;6.50;;;8.90;99.90;;;;;;5033808;28;20040;-71
2022/11/26 04:57:33;;;;;;;13.02;5.88;;;8.90;99.90;;;;;;5034069;28;20034;-71
2022/11/26 04:59:59;;;;;;;17.23;6.60;;;8.80;99.90;;;;;;5033767;28;20033;-71
2022/11/26 05:02:24;;;;;;;11.20;5.95;;;8.80;99.90;;;;;;5033362;28;20036;-71
2022/11/26 05:04:51;;;;;;;14.65;6.30;;;8.80;99.90;;;;;;5034286;28;20104;-72
2022/11/26 05:07:17;;;;;;;16.95;6.75;;;8.80;99.90;;;;;;5032547;28;20029;-72
2022/11/26 05:09:42;;;;;;;20.48;7.22;;;8.70;99.90;;;;;;5032424;28;20492;-72
2022/11/26 05:12:10;;;;;;;20.27;7.43;;;8.70;99.90;;;;;;5033325;28;20055;-71
2022/11/26 05:14:35;;;;;;;18.65;6.78;;;8.60;99.90;;;;;;5033629;28;20035;-71
2022/11/26 05:17:01;;;;;;;19.90;7.35;;;8.60;99.90;;;;;;5033593;28;20025;-71
2022/11/26 05:19:26;;;;;;;20.65;7.88;;;8.60;99.90;;;;;;5015927;28;20037;-71
2022/11/26 05:21:52;;;;;;;18.63;8.32;;;8.60;99.90;;;;;;5033552;28;20064;-71
2022/11/26 05:24:18;;;;;;;27.13;8.25;;;8.60;99.90;;;;;;5033271;28;20025;-71
2022/11/26 05:26:43;;;;;;;17.80;7.22;;;8.50;99.90;;;;;;5033501;28;20079;-72
2022/11/26 05:29:09;;;;;;;18.88;8.45;;;8.50;99.90;;;;;;5032295;28;20076;-72
2022/11/26 05:31:34;;;;;;;21.17;7.10;;;8.40;99.90;;;;;;5033831;28;20029;-71
2022/11/26 05:34:00;;;;;;;18.38;7.68;;;8.40;99.90;;;;;;5037969;28;20145;-72
2022/11/26 05:36:26;;;;;;;25.42;8.07;;;8.40;99.90;;;;;;5037531;28;20533;-74
2022/11/26 05:38:51;;;;;;;23.25;8.40;;;8.40;99.90;;;;;;5035959;28;20037;-75
2022/11/26 05:41:17;;;;;;;22.35;7.80;;;8.40;99.90;;;;;;5036134;28;20025;-74
2022/11/26 05:43:42;;;;;;;23.02;8.65;;;8.40;99.90;;;;;;5037788;28;20106;-74
2022/11/26 05:46:08;;;;;;;17.25;7.70;;;8.40;99.90;;;;;;5037240;28;20487;-74
2022/11/26 05:48:34;;;;;;;21.13;7.85;;;8.40;99.90;;;;;;5035549;28;20030;-73
2022/11/26 05:51:01;;;;;;;16.77;7.68;;;8.40;99.90;;;;;;5037099;28;20026;-73
2022/11/26 05:53:27;;;;;;;16.90;6.93;;;8.40;99.90;;;;;;5037380;28;20026;-74
2022/11/26 05:55:53;;;;;;;18.60;7.40;;;8.40;99.90;;;;;;5036792;28;20029;-72
2022/11/26 05:58:18;;;;;;;23.98;8.30;;;8.40;99.90;;;;;;5035682;28;20026;-72
2022/11/26 06:00:44;;;;;;;18.60;7.88;;;8.40;99.90;;;;;;5036917;28;20033;-72
2022/11/26 06:03:10;;;;;;;20.30;7.80;;;8.40;99.90;;;;;;5036952;28;20058;-72
2022/11/26 06:05:35;;;;;;;21.90;7.97;;;8.40;99.90;;;;;;5036922;28;20034;-73
2022/11/26 06:08:01;;;;;;;20.30;8.10;;;8.40;99.90;;;;;;5019080;28;20124;-73
2022/11/26 06:10:27;;;;;;;24.13;8.52;;;8.40;99.90;;;;;;5037147;28;20038;-72
2022/11/26 06:12:52;;;;;;;24.77;8.43;;;8.40;99.90;;;;;;5035836;28;20029;-72
2022/11/26 06:15:18;;;;;;;23.17;8.10;;;8.30;99.90;;;;;;5036334;28;20061;-72
2022/11/26 06:17:44;;;;;;;26.38;8.00;;;8.30;99.90;;;;;;5036702;28;20034;-72
2022/11/26 06:20:10;;;;;;;22.98;7.70;;;8.40;99.90;;;;;;5035599;28;20036;-73
2022/11/26 06:22:41;;;;;;;18.50;7.95;;;8.40;99.90;;;;;;5037001;28;20048;-73
2022/11/26 06:25:09;;;;;;;17.73;8.02;;;8.40;99.90;;;;;;5036623;28;20105;-72
2022/11/26 06:27:35;;;;;;;19.70;7.78;;;8.40;99.90;;;;;;5036969;28;20476;-72
2022/11/26 06:30:03;;;;;;;17.33;7.38;;;8.40;99.90;;;;;;5035207;28;20042;-72
2022/11/26 06:32:29;;;;;;;17.60;7.35;;;8.40;99.90;;;;;;5035985;28;20433;-73
2022/11/26 06:34:55;;;;;;;21.92;8.07;;;8.40;99.90;;;;;;5036362;28;20029;-73
2022/11/26 06:37:21;;;;;;;25.23;7.47;;;8.50;99.90;;;;;;5036343;28;20057;-73
2022/11/26 06:39:47;;;;;;;21.27;7.28;;;8.40;99.90;;;;;;5035076;28;20084;-72
2022/11/26 06:42:12;;;;;;;23.42;7.35;;;8.50;99.90;;;;;;5035002;28;20032;-72
2022/11/26 06:44:38;;;;;;;15.30;7.68;;;8.50;99.90;;;;;;5035448;28;20025;-70
2022/11/26 06:47:03;;;;;;;20.60;7.90;;;8.50;99.90;;;;;;5036138;28;20044;-70
2022/11/26 06:49:29;;;;;;;20.55;8.27;;;8.50;99.90;;;;;;5034889;28;20083;-70
2022/11/26 06:51:55;;;;;;;23.30;8.35;;;8.50;99.90;;;;;;5035816;28;20052;-70
2022/11/26 06:54:20;;;;;;;21.35;8.27;;;8.50;99.90;;;;;;5035681;28;20087;-70
2022/11/26 06:56:46;;;;;;;19.60;7.60;;;8.50;99.90;;;;;;5036240;28;20060;-72
2022/11/26 06:59:12;;;;;;;26.27;8.15;;;8.50;99.90;;;;;;5034878;28;20035;-72
2022/11/26 07:01:37;;;;;;;19.58;8.00;;;8.50;99.90;;;;;;5035831;28;20369;-72
2022/11/26 07:04:04;;;;;;;19.10;7.30;;;8.50;99.90;;;;;;5035888;28;20025;-72
2022/11/26 07:06:31;;;;;;;21.52;7.90;;;8.50;99.90;;;;;;5034525;28;20026;-72
2022/11/26 07:09:00;;;;;;;19.55;8.05;;;8.50;99.90;;;;;;5035792;28;20037;-72
2022/11/26 07:11:26;;;;;;;23.88;8.27;;;8.50;99.90;;;;;;5035855;28;20030;-72
2022/11/26 07:13:53;;;;;;;17.17;7.05;;;8.50;99.90;;;;;;5035480;28;20038;-72
2022/11/26 07:16:18;;;;;;;19.58;7.20;;;8.50;99.90;;;;;;5017731;28;20393;-73
2022/11/26 07:18:52;;;;;;;18.92;7.68;;;8.50;99.90;;;;;;5017810;28;20026;-72
2022/11/26 07:21:19;;;;;;;22.13;8.10;;;8.50;99.90;;;;;;5035687;28;20018;-72
2022/11/26 07:23:45;;;;;;;21.00;7.40;;;8.60;99.90;;;;;;5035294;28;20022;-72
2022/11/26 07:26:12;;;;;;;19.40;7.53;;;8.60;99.90;;;;;;5034134;28;20132;-73
2022/11/26 07:28:38;;;;;;;19.92;7.97;;;8.60;99.90;;;;;;5033727;28;20037;-75
2022/11/26 07:31:15;;;;;;;19.05;7.55;;;8.70;99.90;;;;;;5035220;28;20025;-73
2022/11/26 07:33:41;;;;;;;20.60;7.00;;;8.70;99.90;;;;;;5035499;28;20025;-74
2022/11/26 07:36:12;;;;;;;18.40;7.18;;;8.70;99.90;;;;;;5034803;28;20053;-74
2022/11/26 07:38:38;;;;;;;22.67;7.00;;;8.70;99.90;;;;;;5034855;28;20025;-74
2022/11/26 07:41:06;;;;;;;27.25;7.70;;;8.70;99.90;;;;;;5017513;28;20524;-74
2022/11/26 07:43:37;;;;;;;18.20;7.22;;;8.70;99.90;;;;;;5035524;28;20034;-74
2022/11/26 07:46:05;;;;;;;21.27;6.60;;;8.70;99.90;;;;;;5034930;28;20029;-74
2022/11/26 07:48:32;;;;;;;20.33;7.00;;;8.70;99.90;;;;;;5034440;28;20355;-74
2022/11/26 07:50:58;;;;;;;21.85;7.32;;;8.70;99.90;;;;;;5034319;28;20049;-73
2022/11/26 07:53:26;;;;;;;23.10;7.60;;;8.80;99.90;;;;;;5034428;28;20025;-73
2022/11/26 07:55:52;;;;;;;22.08;8.50;;;8.80;99.90;;;;;;5015642;28;20037;-74
2022/11/26 07:58:18;;;;;;;24.85;8.02;;;8.80;99.90;;;;;;5033793;28;20366;-73
2022/11/26 08:00:43;;;;;;;18.65;7.28;;;8.80;99.90;;;;;;5034866;28;20459;-75
2022/11/26 08:03:09;;;;;;;21.20;7.53;;;8.80;99.90;;;;;;5034288;28;20032;-72
2022/11/26 08:05:39;;;;;;;18.95;7.35;;;8.90;99.90;;;;;;5034258;28;20033;-74
2022/11/26 08:08:04;;;;;;;22.80;8.52;;;8.90;99.90;;;;;;5033414;28;20028;-75
2022/11/26 08:10:30;;;;;;;22.33;7.82;;;8.90;99.90;;;;;;5034196;28;20394;-75
2022/11/26 08:12:56;;;;;;;18.05;7.13;;;8.90;99.90;;;;;;5033964;28;20033;-74
2022/11/26 08:15:21;;;;;;;20.45;7.75;;;8.90;99.90;;;;;;5034023;28;20065;-79
2022/11/26 08:17:47;;;;;;;21.83;7.85;;;9.00;99.90;;;;;;5033669;28;20053;-73
2022/11/26 08:20:13;;;;;;;23.77;7.18;;;8.90;99.90;;;;;;5034203;28;20112;-73
2022/11/26 08:22:39;;;;;;;20.88;8.23;;;8.90;99.90;;;;;;5000311;28;20025;-73
2022/11/26 08:25:05;;;;;;;24.05;8.30;;;8.90;99.90;;;;;;5015845;28;20025;-74
2022/11/26 08:27:32;;;;;;;21.70;7.20;;;8.90;99.90;;;;;;5033970;28;20033;-73
2022/11/26 08:29:57;;;;;;;21.23;6.93;;;8.90;99.90;;;;;;5015933;28;20041;-72
2022/11/26 08:32:23;;;;;;;24.00;7.57;;;8.90;99.90;;;;;;5033731;28;20402;-74
2022/11/26 08:34:49;;;;;;;23.50;8.13;;;9.00;99.90;;;;;;5032365;28;20119;-75
2022/11/26 08:37:14;;;;;;;19.25;7.63;;;9.00;99.90;;;;;;5029089;28;20050;-73
2022/11/26 08:39:40;;;;;;;21.98;7.07;;;9.00;99.90;;;;;;5012922;28;20038;-73
2022/11/26 08:42:05;;;;;;;23.35;7.10;;;9.10;99.90;;;;;;5013867;28;20058;-73
2022/11/26 08:44:31;;;;;;;23.67;7.63;;;9.10;99.90;;;;;;5012879;28;20034;-73
2022/11/26 08:46:57;;;;;;;28.90;8.30;;;9.20;99.90;;;;;;5012968;28;20084;-74
2022/11/26 08:49:22;;;;;;;23.63;8.60;;;9.20;99.90;;;;;;5012505;28;20124;-73
2022/11/26 08:51:48;;;;;;;21.88;8.00;;;9.30;99.90;;;;;;5014045;28;20026;-73
2022/11/26 08:54:13;;;;;;;28.58;8.85;;;9.30;99.90;;;;;;5014159;28;20030;-73
2022/11/26 08:56:39;;;;;;;24.80;9.45;;;9.20;99.90;;;;;;5014301;28;20034;-72
2022/11/26 08:59:05;;;;;;;24.33;8.23;;;9.30;99.90;;;;;;5013990;28;20462;-71
2022/11/26 09:01:32;;;;;;;23.92;8.10;;;9.30;99.90;;;;;;5014273;28;20030;-72
2022/11/26 09:04:00;;;;;;;21.67;8.30;;;9.30;99.90;;;;;;5029125;28;20026;-72
2022/11/26 09:06:30;;;;;;;22.88;8.57;;;9.30;99.90;;;;;;5013633;28;20501;-73
2022/11/26 09:09:11;;;;;;;20.23;8.43;;;9.40;99.90;;;;;;5013799;28;20056;-73
2022/11/26 09:11:42;;;;;;;26.25;8.40;;;9.40;99.90;;;;;;5014010;28;20116;-72
2022/11/26 09:14:09;;;;;;;21.88;9.02;;;9.40;99.90;;;;;;5013695;28;20026;-75
2022/11/26 09:16:35;;;;;;;20.42;6.68;;;9.50;99.90;;;;;;5028617;28;20034;-74
2022/11/26 09:19:02;;;;;;;19.58;7.63;;;9.50;99.90;;;;;;5012975;28;20044;-72
2022/11/26 09:21:28;;;;;;;21.73;8.57;;;9.50;99.90;;;;;;5013664;28;20026;-74
2022/11/26 09:23:55;;;;;;;19.67;8.57;;;9.40;99.90;;;;;;5013674;28;20605;-74
2022/11/26 09:26:21;;;;;;;21.48;8.55;;;9.50;99.90;;;;;;5013298;28;20029;-75
2022/11/26 09:28:47;;;;;;;20.42;8.20;;;9.50;99.90;;;;;;5013174;28;20045;-75
2022/11/26 09:31:13;;;;;;;19.13;7.90;;;9.50;99.90;;;;;;5013575;28;20037;-74
2022/11/26 09:33:39;;;;;;;20.02;7.25;;;9.60;99.90;;;;;;5012337;28;20030;-75
2022/11/26 09:36:06;;;;;;;25.92;8.18;;;9.60;99.90;;;;;;5012034;28;20529;-75
2022/11/26 09:38:33;;;;;;;21.33;6.78;;;9.70;99.90;;;;;;4995880;28;20425;-75
2022/11/26 09:41:36;;;;;;;24.83;8.63;;;9.80;99.90;;;;;;5013549;28;20033;-76
2022/11/26 09:44:23;;;;;;;22.15;9.13;;;9.70;99.90;;;;;;5014063;28;20033;-75
2022/11/26 09:46:58;;;;;;;18.77;8.30;;;9.70;99.90;;;;;;5013379;28;20026;-74
2022/11/26 09:49:27;;;;;;;21.88;8.50;;;9.80;99.90;;;;;;5013539;28;20041;-74
2022/11/26 09:51:56;;;;;;;21.95;9.07;;;9.80;99.90;;;;;;5013394;28;20030;-75
2022/11/26 09:54:24;;;;;;;19.83;8.57;;;9.80;99.90;;;;;;5013385;28;20022;-75
2022/11/26 09:57:26;;;;;;;22.10;9.57;;;9.80;99.90;;;;;;5011794;28;20060;-73
2022/11/26 09:59:54;;;;;;;16.92;7.85;;;9.90;99.90;;;;;;5005303;28;20107;-73
2022/11/26 10:02:19;;;;;;;20.77;8.77;;;9.90;99.90;;;;;;5013579;28;20033;-73
2022/11/26 10:04:46;;;;;;;23.35;9.40;;;10.00;99.90;;;;;;5011945;28;20042;-74
2022/11/26 10:07:30;;;;;;;16.52;7.38;;;10.10;99.90;;;;;;5013364;28;20041;-74
2022/11/26 10:10:04;;;;;;;22.05;8.38;;;10.10;99.90;;;;;;5011733;28;20052;-73
2022/11/26 10:12:38;;;;;;;23.58;7.82;;;10.00;99.90;;;;;;5013870;28;20346;-72
2022/11/26 10:15:17;;;;;;;28.63;10.40;;;10.10;99.90;;;;;;5012124;28;20028;-72
2022/11/26 10:18:10;;;;;;;19.98;9.65;;;10.10;99.90;;;;;;5013276;28;20450;-72
2022/11/26 10:21:02;;;;;;;19.90;8.80;;;10.10;99.90;;;;;;5016821;28;20045;-72
2022/11/26 10:23:36;;;;;;;29.10;10.63;;;10.10;99.90;;;;;;5015834;28;20036;-72
2022/11/26 10:26:07;;;;;;;23.65;8.18;;;10.10;99.90;;;;;;5015883;28;20061;-72
2022/11/26 10:28:38;;;;;;;22.27;9.02;;;10.10;99.90;;;;;;5016141;28;20033;-72
2022/11/26 10:31:14;;;;;;;21.40;9.32;;;10.10;99.90;;;;;;5016524;28;20084;-71
2022/11/26 10:33:56;;;;;;;20.42;8.93;;;10.10;99.90;;;;;;5016240;28;20026;-72
2022/11/26 10:36:25;;;;;;;20.60;8.50;;;10.20;99.90;;;;;;5023681;28;20056;-72
2022/11/26 10:38:55;;;;;;;21.80;8.73;;;10.30;99.90;;;;;;5019109;28;20080;-74
2022/11/26 10:41:22;;;;;;;23.20;8.35;;;10.30;99.90;;;;;;5036493;28;20048;-76
2022/11/26 10:43:48;;;;;;;19.85;7.32;;;10.30;99.90;;;;;;5019249;28;20057;-75
2022/11/26 10:46:30;;;;;;;22.40;7.28;;;10.30;99.90;;;;;;5034988;28;20398;-75
2022/11/26 10:49:15;;;;;;;20.85;8.02;;;10.30;99.90;;;;;;5036326;28;20044;-75
2022/11/26 10:51:40;;;;;;;22.77;7.75;;;10.30;99.90;;;;;;5018656;28;20536;-75
2022/11/26 10:54:22;;;;;;;21.02;7.22;;;10.30;99.90;;;;;;5034754;28;20034;-75
2022/11/26 10:56:52;;;;;;;25.63;9.32;;;10.30;99.90;;;;;;5035192;28;20453;-76
2022/11/26 10:59:21;;;;;;;25.80;8.75;;;10.30;99.90;;;;;;5036012;28;20029;-75
2022/11/26 11:01:48;;;;;;;29.27;8.40;;;10.30;99.90;;;;;;5034574;28;20025;-75
2022/11/26 11:04:30;;;;;;;24.02;7.70;;;10.30;99.90;;;;;;5034527;28;20109;-73
2022/11/26 11:06:57;;;;;;;23.43;8.07;;;10.40;99.90;;;;;;5036014;28;20030;-73
2022/11/26 11:09:27;;;;;;;21.60;7.40;;;10.40;99.90;;;;;;5034426;28;20289;-73
2022/11/26 11:12:15;;;;;;;26.25;7.85;;;10.50;99.90;;;;;;5034800;28;20052;-74
2022/11/26 11:14:41;;;;;;;21.30;7.22;;;10.50;99.90;;;;;;5034979;28;20075;-74
2022/11/26 11:17:17;;;;;;;22.13;7.53;;;10.50;99.90;;;;;;5035849;28;20039;-74
2022/11/26 11:19:43;;;;;;;30.38;8.70;;;10.50;99.90;;;;;;5035396;28;20034;-75
2022/11/26 11:22:20;;;;;;;24.40;7.85;;;10.50;99.90;;;;;;5035456;28;20048;-75
2022/11/26 11:24:47;;;;;;;28.92;7.38;;;10.50;99.90;;;;;;5035760;28;20057;-75
2022/11/26 11:27:48;;;;;;;21.13;7.45;;;10.50;99.90;;;;;;5035057;28;20049;-74
2022/11/26 11:30:26;;;;;;;22.25;7.20;;;10.50;99.90;;;;;;4973865;28;20038;-75
2022/11/26 11:32:56;;;;;;;21.77;7.45;;;10.60;99.90;;;;;;5010401;28;20470;-73
2022/11/26 11:35:23;;;;;;;20.50;7.57;;;10.70;99.90;;;;;;5017103;28;20029;-73
2022/11/26 11:37:54;;;;;;;23.30;7.63;;;10.70;99.90;;;;;;5035683;28;20041;-73
2022/11/26 11:40:26;;;;;;;24.65;7.30;;;10.80;99.90;;;;;;5035022;28;20029;-72
2022/11/26 11:42:58;;;;;;;20.50;7.53;;;10.80;99.90;;;;;;5017455;28;20026;-75
2022/11/26 11:45:41;;;;;;;31.40;7.90;;;10.90;99.90;;;;;;5017603;28;20373;-73
2022/11/26 11:48:28;;;;;;;;;;;10.90;99.90;;;;;;5017358;28;20497;-74
2022/11/26 11:51:02;;;;;;;29.48;8.82;;;11.20;99.90;;;;;;5035026;28;19920;-74
2022/11/26 11:53:50;;;;;;;22.45;7.65;;;11.30;99.90;;;;;;5034072;28;20030;-74
2022/11/26 11:56:51;;;;;;;24.92;7.15;;;11.30;99.90;;;;;;5034476;28;20429;-74
2022/11/26 11:59:57;;;;;;;22.83;6.85;;;11.20;99.90;;;;;;5009257;28;20046;-76
2022/11/26 12:02:26;;;;;;;30.17;7.57;;;11.20;99.90;;;;;;5034992;28;20021;-74
2022/11/26 12:05:19;;;;;;;25.77;6.60;;;11.30;99.90;;;;;;5035014;28;20060;-74
2022/11/26 12:08:00;;;;;;;20.35;6.03;;;11.30;99.90;;;;;;5034728;28;20080;-74
2022/11/26 12:10:36;;;;;;;14.63;5.68;;;11.40;99.90;;;;;;5034340;28;20037;-75
2022/11/26 12:13:06;;;;;;;18.45;6.10;;;11.40;99.90;;;;;;5033922;28;20108;-74
2022/11/26 12:15:50;;;;;;;23.48;6.65;;;11.50;99.90;;;;;;5034269;28;20029;-75
2022/11/26 12:18:45;;;;;;;20.05;5.65;;;11.50;99.90;;;;;;5016521;28;20041;-75
2022/11/26 12:21:14;;;;;;;18.10;5.78;;;11.60;99.90;;;;;;5030999;28;20480;-74
2022/11/26 12:23:58;;;;;;;32.35;6.40;;;11.70;99.90;;;;;;5016485;28;20462;-74
2022/11/26 12:26:34;;;;;;;22.98;6.35;;;11.80;99.90;;;;;;5034022;28;20037;-74
2022/11/26 12:29:32;;;;;;;27.23;6.65;;;11.90;99.90;;;;;;5033941;28;20021;-74
2022/11/26 12:32:13;;;;;;;25.98;7.30;;;11.90;99.90;;;;;;5034193;28;20079;-76
2022/11/26 12:34:45;;;;;;;19.85;5.45;;;12.00;99.90;;;;;;5034459;28;20025;-75
2022/11/26 12:37:17;;;;;;;21.25;5.47;;;12.00;99.90;;;;;;5033606;28;20053;-75
2022/11/26 12:40:02;;;;;;;30.27;6.50;;;12.10;99.90;;;;;;5034003;28;20029;-75
2022/11/26 12:42:43;;;;;;;20.77;5.80;;;12.10;99.90;;;;;;5033793;28;20108;-76
2022/11/26 12:45:25;;;;;;;19.23;5.60;;;12.20;99.90;;;;;;5033258;28;20347;-75
2022/11/26 12:48:15;;;;;;;24.60;6.45;;;12.30;99.90;;;;;;5033784;28;20100;-75
2022/11/26 12:50:46;;;;;;;20.60;5.10;;;12.30;99.90;;;;;;5002807;28;20052;-75
2022/11/26 12:53:33;;;;;;;24.13;6.63;;;12.30;99.90;;;;;;5033938;28;20017;-74
2022/11/26 12:56:17;;;;;;;19.30;4.55;;;12.30;99.90;;;;;;5034039;28;20100;-75
2022/11/26 12:58:46;;;;;;;24.38;5.20;;;12.40;99.90;;;;;;5034085;28;20112;-75
2022/11/26 13:01:12;;;;;;;17.67;4.88;;;12.40;99.90;;;;;;5032711;28;20048;-75